Del Norte — WDC2280 — position and weather

sailwx.info

Track history (hours):
 
Tides and Currents Weather Stations Pressure Air Temp Water Temp Dewpoint Dewpoint Depression Visibility Wind Speed Wind Dir Waves Ship Positions

Del Norte

Owner: Golden Gate Bridge,Hwy & Transportation District, Larkspur, CA. More information available from US FCC via Universal Licensing System and Coast Guard Vessel Documentation Center.

Last reported at 2018-Jul-21 03:54 UTC. Time now 2018-Jul-21 09:39 UTC.
Position N 37°57' W 122°30'.

Length 48 m.

Type: High speed craft. MMSI: 366990520.

Date/timePositionNaut miles runAvg speedWind from/ knotsBaromVisibWave heightAir tempDewpointWater temp
2018-Jul-21 03:54N 37°57' W 122°30'512.1
2018-Jul-21 03:30N 37°52' W 122°27'510.9
2018-Jul-21 03:00N 37°48' W 122°24'510.9
2018-Jul-21 02:30N 37°52' W 122°27'5 9.5
2018-Jul-21 02:00N 37°49' W 122°23'4 8.5
2018-Jul-21 01:30N 37°52' W 122°27'2 5.0
2018-Jul-21 01:00N 37°51' W 122°24'3 5.6
2018-Jul-21 00:31N 37°48' W 122°23'510.9
2018-Jul-21 00:00N 37°52' W 122°27'510.2
2018-Jul-20 23:30N 37°49' W 122°23'1 1.5
2018-Jul-20 23:00N 37°48' W 122°23'1019.5
2018-Jul-20 22:30N 37°56' W 122°30'1 1.9
2018-Jul-20 22:00N 37°57' W 122°31'1 0.0
2018-Jul-20 03:55N 37°56' W 122°30'511.3
2018-Jul-20 03:30N 37°52' W 122°27'510.9
2018-Jul-20 03:00N 37°48' W 122°24'510.8
2018-Jul-20 02:30N 37°52' W 122°27'5 9.6
2018-Jul-20 02:01N 37°49' W 122°23'3 5.5
2018-Jul-20 01:31N 37°51' W 122°26'1 1.5
2018-Jul-20 01:00N 37°51' W 122°27'4 8.4
2018-Jul-20 00:30N 37°48' W 122°23'611.0
2018-Jul-20 00:00N 37°52' W 122°27'510.3
2018-Jul-19 23:30N 37°48' W 122°23'1 1.6
2018-Jul-19 23:00N 37°48' W 122°23'4 8.1
2018-Jul-19 22:30N 37°51' W 122°25'713.5
2018-Jul-19 22:00N 37°57' W 122°30'0 0.3
2018-Jul-19 21:30N 37°57' W 122°31'0 0.0
2018-Jul-19 21:00N 37°57' W 122°31'0 0.0
2018-Jul-19 20:31N 37°57' W 122°31'0 0.0
2018-Jul-19 20:00N 37°57' W 122°31'0 0.0
2018-Jul-19 19:30N 37°57' W 122°31'0 0.0
2018-Jul-19 19:00N 37°57' W 122°31'0 0.0
2018-Jul-19 18:30N 37°57' W 122°31'1 2.4
2018-Jul-19 18:00N 37°56' W 122°29'3 5.4
2018-Jul-19 17:30N 37°55' W 122°26'3 5.3
2018-Jul-19 17:01N 37°52' W 122°25'4 8.9
2018-Jul-19 16:31N 37°48' W 122°23'510.6
2018-Jul-19 16:00N 37°52' W 122°27'511.0
2018-Jul-19 15:30N 37°48' W 122°24'510.7
2018-Jul-19 15:00N 37°52' W 122°27'1 1.1
2018-Jul-19 14:30N 37°52' W 122°27'1 0.7
2018-Jul-19 13:30N 37°52' W 122°27'510.9
2018-Jul-19 13:00N 37°48' W 122°24'511.0
2018-Jul-19 12:30N 37°52' W 122°27'1 2.5
2018-Jul-19 12:00N 37°53' W 122°26'5 9.2
2018-Jul-19 11:31N 37°57' W 122°31'0 0.0
2018-Jul-19 03:58N 37°57' W 122°30'510.7
2018-Jul-19 03:31N 37°52' W 122°27'510.9
2018-Jul-19 03:00N 37°48' W 122°24'511.0
2018-Jul-19 02:30N 37°52' W 122°27'510.8
2018-Jul-19 02:00N 37°48' W 122°23'5 9.1
2018-Jul-19 01:30N 37°51' W 122°27'2 3.2
2018-Jul-19 01:00N 37°51' W 122°25'3 6.3
2018-Jul-19 00:30N 37°48' W 122°23'611.0
2018-Jul-19 00:00N 37°52' W 122°27'510.4
2018-Jul-18 23:30N 37°48' W 122°23'1 1.4
2018-Jul-18 23:00N 37°48' W 122°24'510.5
2018-Jul-18 22:31N 37°51' W 122°29'2 4.3
2018-Jul-18 22:00N 37°52' W 122°26'510.3
2018-Jul-18 21:29N 37°57' W 122°31'0 0.0
2018-Jul-18 21:00N 37°57' W 122°31'0 0.0
2018-Jul-18 20:30N 37°57' W 122°31'0 0.0
2018-Jul-18 20:00N 37°57' W 122°31'0 0.0
2018-Jul-18 19:30N 37°57' W 122°31'0 0.0
2018-Jul-18 19:00N 37°57' W 122°31'0 0.0
2018-Jul-18 18:30N 37°57' W 122°31'0 0.7
2018-Jul-18 18:00N 37°57' W 122°30'3 5.2
2018-Jul-18 17:30N 37°56' W 122°27'2 3.5
2018-Jul-18 17:00N 37°54' W 122°26'612.3
2018-Jul-18 16:30N 37°48' W 122°23'510.3
2018-Jul-18 16:00N 37°52' W 122°27'511.0
2018-Jul-18 15:30N 37°48' W 122°24'510.7
2018-Jul-18 15:00N 37°52' W 122°27'1 3.0
2018-Jul-18 14:30N 37°51' W 122°26'3 6.2
2018-Jul-18 14:00N 37°49' W 122°24'5 9.3
2018-Jul-18 13:30N 37°52' W 122°27'511.2
2018-Jul-18 13:01N 37°48' W 122°24'510.8
2018-Jul-18 12:30N 37°52' W 122°27'4 8.8
2018-Jul-18 12:00N 37°56' W 122°30'1 1.4
2018-Jul-18 11:30N 37°57' W 122°31'0 0.0
2018-Jul-18 03:56N 37°57' W 122°30'511.2
2018-Jul-18 03:30N 37°52' W 122°27'511.0
2018-Jul-18 03:00N 37°48' W 122°24'510.9
2018-Jul-18 02:30N 37°52' W 122°27'510.0
2018-Jul-18 02:01N 37°49' W 122°23'3 6.6
2018-Jul-18 01:31N 37°51' W 122°26'1 1.0
2018-Jul-18 01:01N 37°51' W 122°27'4 8.5
2018-Jul-18 00:30N 37°48' W 122°23'511.0
2018-Jul-18 00:00N 37°52' W 122°27'510.7
2018-Jul-17 23:31N 37°48' W 122°23'0 0.9
2018-Jul-17 23:00N 37°48' W 122°23'1021.0
2018-Jul-17 22:30N 37°57' W 122°30'0 0.0
2018-Jul-17 04:03N 37°57' W 122°31'0 0.1
2018-Jul-17 04:00N 37°57' W 122°31'5 9.9
2018-Jul-17 03:30N 37°52' W 122°27'511.2
2018-Jul-17 03:01N 37°48' W 122°24'510.9
2018-Jul-17 02:30N 37°52' W 122°27'5 9.5
2018-Jul-17 02:00N 37°49' W 122°23'4 8.4
2018-Jul-17 01:30N 37°52' W 122°27'3 5.3
2018-Jul-17 01:01N 37°50' W 122°24'2 4.7
2018-Jul-17 00:30N 37°48' W 122°23'1 0.7
2018-Jul-16 23:31N 37°49' W 122°23'1 2.2
2018-Jul-16 23:00N 37°48' W 122°23'918.2
2018-Jul-16 22:31N 37°56' W 122°28'2 4.0
2018-Jul-16 22:00N 37°57' W 122°31'0 0.0
2018-Jul-16 03:09N 37°57' W 122°31'0 0.0
2018-Jul-16 03:00N 37°57' W 122°31'714.0
2018-Jul-16 02:30N 37°52' W 122°24'2 4.9
2018-Jul-16 02:01N 37°49' W 122°24'4 8.0
2018-Jul-16 01:31N 37°51' W 122°29'510.8
2018-Jul-16 01:00N 37°48' W 122°24'0 0.0
2018-Jul-16 00:30N 37°48' W 122°24'0 0.1
2018-Jul-16 00:00N 37°48' W 122°24'510.5
2018-Jul-15 23:30N 37°51' W 122°28'510.2
2018-Jul-15 23:00N 37°48' W 122°23'2 4.7
2018-Jul-15 22:30N 37°50' W 122°25'3 5.8
2018-Jul-15 22:00N 37°51' W 122°29'0 0.4
2018-Jul-15 21:30N 37°51' W 122°28'0 0.5
2018-Jul-15 21:01N 37°51' W 122°28'611.5
2018-Jul-15 20:30N 37°57' W 122°31'0 0.0
2018-Jul-15 04:17N 37°57' W 122°31'1 4.3
2018-Jul-15 04:00N 37°56' W 122°29'918.9
2018-Jul-15 03:31N 37°48' W 122°24'510.7
2018-Jul-15 03:00N 37°51' W 122°29'510.7
2018-Jul-15 02:30N 37°48' W 122°24'5 9.3
2018-Jul-15 02:01N 37°51' W 122°28'1 1.3
2018-Jul-15 01:30N 37°51' W 122°29'510.5
2018-Jul-15 01:00N 37°48' W 122°24'0 0.0
2018-Jul-15 00:31N 37°48' W 122°24'0 0.0
2018-Jul-15 00:01N 37°48' W 122°24'1 1.0
2018-Jul-14 23:31N 37°48' W 122°23'510.5
2018-Jul-14 23:00N 37°51' W 122°29'0 0.2
2018-Jul-14 22:31N 37°51' W 122°29'510.5
2018-Jul-14 22:01N 37°48' W 122°24'510.6
2018-Jul-14 21:30N 37°51' W 122°29'3 5.3
2018-Jul-14 21:01N 37°53' W 122°26'510.2
2018-Jul-14 20:30N 37°57' W 122°31'1 0.0
2018-Jul-14 03:54N 37°56' W 122°30'411.2
2018-Jul-14 03:30N 37°52' W 122°27'510.9
2018-Jul-14 03:00N 37°48' W 122°24'510.9
2018-Jul-14 02:30N 37°52' W 122°27'510.8
2018-Jul-14 02:00N 37°48' W 122°23'510.2
2018-Jul-14 01:30N 37°52' W 122°26'0 0.8
2018-Jul-14 01:01N 37°52' W 122°26'5 9.8
2018-Jul-14 00:31N 37°48' W 122°23'510.8
2018-Jul-14 00:00N 37°52' W 122°27'510.4
2018-Jul-13 23:31N 37°48' W 122°23'1 1.1
2018-Jul-13 23:00N 37°48' W 122°24'510.7
2018-Jul-13 22:30N 37°51' W 122°29'2 3.7
2018-Jul-13 22:00N 37°52' W 122°27'510.6
2018-Jul-13 21:30N 37°57' W 122°31'0 0.0
2018-Jul-13 21:00N 37°57' W 122°31'0 0.0
2018-Jul-13 20:30N 37°57' W 122°31'0 0.0
2018-Jul-13 20:00N 37°57' W 122°31'0 0.0
2018-Jul-13 19:30N 37°57' W 122°31'0 0.0
2018-Jul-13 19:00N 37°57' W 122°31'0 0.0
2018-Jul-13 18:30N 37°57' W 122°31'0 0.0
2018-Jul-13 18:00N 37°57' W 122°31'0 0.0
2018-Jul-13 17:30N 37°57' W 122°31'1 0.1
2018-Jul-13 03:50N 37°56' W 122°30'413.0
2018-Jul-13 03:30N 37°52' W 122°27'510.9
2018-Jul-13 03:00N 37°48' W 122°24'511.0
2018-Jul-13 02:30N 37°52' W 122°27'510.3
2018-Jul-13 02:01N 37°48' W 122°23'4 8.3
2018-Jul-13 01:30N 37°51' W 122°27'1 2.1
2018-Jul-13 01:01N 37°51' W 122°26'3 6.7
2018-Jul-13 00:30N 37°48' W 122°23'510.9
2018-Jul-13 00:00N 37°52' W 122°27'510.1
2018-Jul-12 23:31N 37°48' W 122°23'0 0.9
2018-Jul-12 23:01N 37°48' W 122°23'1020.6
2018-Jul-12 22:30N 37°57' W 122°30'0 0.1
2018-Jul-12 22:00N 37°57' W 122°31'1 0.0
2018-Jul-12 03:51N 37°56' W 122°30'412.7
2018-Jul-12 03:30N 37°52' W 122°27'510.9
2018-Jul-12 03:00N 37°48' W 122°24'511.0
2018-Jul-12 02:30N 37°52' W 122°27'5 9.2
2018-Jul-12 02:00N 37°49' W 122°23'4 7.9
2018-Jul-12 01:30N 37°52' W 122°27'1 2.8
2018-Jul-12 01:01N 37°51' W 122°26'3 6.7
2018-Jul-12 00:31N 37°48' W 122°23'510.9
2018-Jul-12 00:00N 37°52' W 122°27'510.7
2018-Jul-11 23:30N 37°48' W 122°23'0 1.0
2018-Jul-11 23:00N 37°48' W 122°23'1 1.3
2018-Jul-11 22:31N 37°48' W 122°23'1020.1
2018-Jul-11 22:00N 37°57' W 122°31'0 0.0
2018-Jul-11 21:29N 37°57' W 122°31'0 0.0
2018-Jul-11 21:00N 37°57' W 122°31'  
Track history (hours):
 
Tides and Currents Weather Stations Pressure Air Temp Water Temp Dewpoint Dewpoint Depression Visibility Wind Speed Wind Dir Waves Ship Positions

Del Norte

Owner: Golden Gate Bridge,Hwy & Transportation District, Larkspur, CA. More information available from US FCC via Universal Licensing System and Coast Guard Vessel Documentation Center.

Last reported at 2018-Jul-21 03:54 UTC. Time now 2018-Jul-21 09:39 UTC.
Position N 37°57' W 122°30'.

Length 48 m.

Type: High speed craft. MMSI: 366990520.

Date/timePositionNaut miles runAvg speedWind from/ knotsBaromVisibWave heightAir tempDewpointWater temp
2018-Jul-21 03:54N 37°57' W 122°30'512.1
2018-Jul-21 03:30N 37°52' W 122°27'510.9
2018-Jul-21 03:00N 37°48' W 122°24'510.9
2018-Jul-21 02:30N 37°52' W 122°27'5 9.5
2018-Jul-21 02:00N 37°49' W 122°23'4 8.5
2018-Jul-21 01:30N 37°52' W 122°27'2 5.0
2018-Jul-21 01:00N 37°51' W 122°24'3 5.6
2018-Jul-21 00:31N 37°48' W 122°23'510.9
2018-Jul-21 00:00N 37°52' W 122°27'510.2
2018-Jul-20 23:30N 37°49' W 122°23'1 1.5
2018-Jul-20 23:00N 37°48' W 122°23'1019.5
2018-Jul-20 22:30N 37°56' W 122°30'1 1.9
2018-Jul-20 22:00N 37°57' W 122°31'1 0.0
2018-Jul-20 03:55N 37°56' W 122°30'511.3
2018-Jul-20 03:30N 37°52' W 122°27'510.9
2018-Jul-20 03:00N 37°48' W 122°24'510.8
2018-Jul-20 02:30N 37°52' W 122°27'5 9.6
2018-Jul-20 02:01N 37°49' W 122°23'3 5.5
2018-Jul-20 01:31N 37°51' W 122°26'1 1.5
2018-Jul-20 01:00N 37°51' W 122°27'4 8.4
2018-Jul-20 00:30N 37°48' W 122°23'611.0
2018-Jul-20 00:00N 37°52' W 122°27'510.3
2018-Jul-19 23:30N 37°48' W 122°23'1 1.6
2018-Jul-19 23:00N 37°48' W 122°23'4 8.1
2018-Jul-19 22:30N 37°51' W 122°25'713.5
2018-Jul-19 22:00N 37°57' W 122°30'0 0.3
2018-Jul-19 21:30N 37°57' W 122°31'0 0.0
2018-Jul-19 21:00N 37°57' W 122°31'0 0.0
2018-Jul-19 20:31N 37°57' W 122°31'0 0.0
2018-Jul-19 20:00N 37°57' W 122°31'0 0.0
2018-Jul-19 19:30N 37°57' W 122°31'0 0.0
2018-Jul-19 19:00N 37°57' W 122°31'0 0.0
2018-Jul-19 18:30N 37°57' W 122°31'1 2.4
2018-Jul-19 18:00N 37°56' W 122°29'3 5.4
2018-Jul-19 17:30N 37°55' W 122°26'3 5.3
2018-Jul-19 17:01N 37°52' W 122°25'4 8.9
2018-Jul-19 16:31N 37°48' W 122°23'510.6
2018-Jul-19 16:00N 37°52' W 122°27'511.0
2018-Jul-19 15:30N 37°48' W 122°24'510.7
2018-Jul-19 15:00N 37°52' W 122°27'1 1.1
2018-Jul-19 14:30N 37°52' W 122°27'1 0.7
2018-Jul-19 13:30N 37°52' W 122°27'510.9
2018-Jul-19 13:00N 37°48' W 122°24'511.0
2018-Jul-19 12:30N 37°52' W 122°27'1 2.5
2018-Jul-19 12:00N 37°53' W 122°26'5 9.2
2018-Jul-19 11:31N 37°57' W 122°31'0 0.0
2018-Jul-19 03:58N 37°57' W 122°30'510.7
2018-Jul-19 03:31N 37°52' W 122°27'510.9
2018-Jul-19 03:00N 37°48' W 122°24'511.0
2018-Jul-19 02:30N 37°52' W 122°27'510.8
2018-Jul-19 02:00N 37°48' W 122°23'5 9.1
2018-Jul-19 01:30N 37°51' W 122°27'2 3.2
2018-Jul-19 01:00N 37°51' W 122°25'3 6.3
2018-Jul-19 00:30N 37°48' W 122°23'611.0
2018-Jul-19 00:00N 37°52' W 122°27'510.4
2018-Jul-18 23:30N 37°48' W 122°23'1 1.4
2018-Jul-18 23:00N 37°48' W 122°24'510.5
2018-Jul-18 22:31N 37°51' W 122°29'2 4.3
2018-Jul-18 22:00N 37°52' W 122°26'510.3
2018-Jul-18 21:29N 37°57' W 122°31'0 0.0
2018-Jul-18 21:00N 37°57' W 122°31'0 0.0
2018-Jul-18 20:30N 37°57' W 122°31'0 0.0
2018-Jul-18 20:00N 37°57' W 122°31'0 0.0
2018-Jul-18 19:30N 37°57' W 122°31'0 0.0
2018-Jul-18 19:00N 37°57' W 122°31'0 0.0
2018-Jul-18 18:30N 37°57' W 122°31'0 0.7
2018-Jul-18 18:00N 37°57' W 122°30'3 5.2
2018-Jul-18 17:30N 37°56' W 122°27'2 3.5
2018-Jul-18 17:00N 37°54' W 122°26'612.3
2018-Jul-18 16:30N 37°48' W 122°23'510.3
2018-Jul-18 16:00N 37°52' W 122°27'511.0
2018-Jul-18 15:30N 37°48' W 122°24'510.7
2018-Jul-18 15:00N 37°52' W 122°27'1 3.0
2018-Jul-18 14:30N 37°51' W 122°26'3 6.2
2018-Jul-18 14:00N 37°49' W 122°24'5 9.3
2018-Jul-18 13:30N 37°52' W 122°27'511.2
2018-Jul-18 13:01N 37°48' W 122°24'510.8
2018-Jul-18 12:30N 37°52' W 122°27'4 8.8
2018-Jul-18 12:00N 37°56' W 122°30'1 1.4
2018-Jul-18 11:30N 37°57' W 122°31'0 0.0
2018-Jul-18 03:56N 37°57' W 122°30'511.2
2018-Jul-18 03:30N 37°52' W 122°27'511.0
2018-Jul-18 03:00N 37°48' W 122°24'510.9
2018-Jul-18 02:30N 37°52' W 122°27'510.0
2018-Jul-18 02:01N 37°49' W 122°23'3 6.6
2018-Jul-18 01:31N 37°51' W 122°26'1 1.0
2018-Jul-18 01:01N 37°51' W 122°27'4 8.5
2018-Jul-18 00:30N 37°48' W 122°23'511.0
2018-Jul-18 00:00N 37°52' W 122°27'510.7
2018-Jul-17 23:31N 37°48' W 122°23'0 0.9
2018-Jul-17 23:00N 37°48' W 122°23'1021.0
2018-Jul-17 22:30N 37°57' W 122°30'0 0.0
2018-Jul-17 04:03N 37°57' W 122°31'0 0.1
2018-Jul-17 04:00N 37°57' W 122°31'5 9.9
2018-Jul-17 03:30N 37°52' W 122°27'511.2
2018-Jul-17 03:01N 37°48' W 122°24'510.9
2018-Jul-17 02:30N 37°52' W 122°27'5 9.5
2018-Jul-17 02:00N 37°49' W 122°23'4 8.4
2018-Jul-17 01:30N 37°52' W 122°27'3 5.3
2018-Jul-17 01:01N 37°50' W 122°24'2 4.7
2018-Jul-17 00:30N 37°48' W 122°23'1 0.7
2018-Jul-16 23:31N 37°49' W 122°23'1 2.2
2018-Jul-16 23:00N 37°48' W 122°23'918.2
2018-Jul-16 22:31N 37°56' W 122°28'2 4.0
2018-Jul-16 22:00N 37°57' W 122°31'0 0.0
2018-Jul-16 03:09N 37°57' W 122°31'0 0.0
2018-Jul-16 03:00N 37°57' W 122°31'714.0
2018-Jul-16 02:30N 37°52' W 122°24'2 4.9
2018-Jul-16 02:01N 37°49' W 122°24'4 8.0
2018-Jul-16 01:31N 37°51' W 122°29'510.8
2018-Jul-16 01:00N 37°48' W 122°24'0 0.0
2018-Jul-16 00:30N 37°48' W 122°24'0 0.1
2018-Jul-16 00:00N 37°48' W 122°24'510.5
2018-Jul-15 23:30N 37°51' W 122°28'510.2
2018-Jul-15 23:00N 37°48' W 122°23'2 4.7
2018-Jul-15 22:30N 37°50' W 122°25'3 5.8
2018-Jul-15 22:00N 37°51' W 122°29'0 0.4
2018-Jul-15 21:30N 37°51' W 122°28'0 0.5
2018-Jul-15 21:01N 37°51' W 122°28'611.5
2018-Jul-15 20:30N 37°57' W 122°31'0 0.0
2018-Jul-15 04:17N 37°57' W 122°31'1 4.3
2018-Jul-15 04:00N 37°56' W 122°29'918.9
2018-Jul-15 03:31N 37°48' W 122°24'510.7
2018-Jul-15 03:00N 37°51' W 122°29'510.7
2018-Jul-15 02:30N 37°48' W 122°24'5 9.3
2018-Jul-15 02:01N 37°51' W 122°28'1 1.3
2018-Jul-15 01:30N 37°51' W 122°29'510.5
2018-Jul-15 01:00N 37°48' W 122°24'0 0.0
2018-Jul-15 00:31N 37°48' W 122°24'0 0.0
2018-Jul-15 00:01N 37°48' W 122°24'1 1.0
2018-Jul-14 23:31N 37°48' W 122°23'510.5
2018-Jul-14 23:00N 37°51' W 122°29'0 0.2
2018-Jul-14 22:31N 37°51' W 122°29'510.5
2018-Jul-14 22:01N 37°48' W 122°24'510.6
2018-Jul-14 21:30N 37°51' W 122°29'3 5.3
2018-Jul-14 21:01N 37°53' W 122°26'510.2
2018-Jul-14 20:30N 37°57' W 122°31'1 0.0
2018-Jul-14 03:54N 37°56' W 122°30'411.2
2018-Jul-14 03:30N 37°52' W 122°27'510.9
2018-Jul-14 03:00N 37°48' W 122°24'510.9
2018-Jul-14 02:30N 37°52' W 122°27'510.8
2018-Jul-14 02:00N 37°48' W 122°23'510.2
2018-Jul-14 01:30N 37°52' W 122°26'0 0.8
2018-Jul-14 01:01N 37°52' W 122°26'5 9.8
2018-Jul-14 00:31N 37°48' W 122°23'510.8
2018-Jul-14 00:00N 37°52' W 122°27'510.4
2018-Jul-13 23:31N 37°48' W 122°23'1 1.1
2018-Jul-13 23:00N 37°48' W 122°24'510.7
2018-Jul-13 22:30N 37°51' W 122°29'2 3.7
2018-Jul-13 22:00N 37°52' W 122°27'510.6
2018-Jul-13 21:30N 37°57' W 122°31'0 0.0
2018-Jul-13 21:00N 37°57' W 122°31'0 0.0
2018-Jul-13 20:30N 37°57' W 122°31'0 0.0
2018-Jul-13 20:00N 37°57' W 122°31'0 0.0
2018-Jul-13 19:30N 37°57' W 122°31'0 0.0
2018-Jul-13 19:00N 37°57' W 122°31'0 0.0
2018-Jul-13 18:30N 37°57' W 122°31'0 0.0
2018-Jul-13 18:00N 37°57' W 122°31'0 0.0
2018-Jul-13 17:30N 37°57' W 122°31'1 0.1
2018-Jul-13 03:50N 37°56' W 122°30'413.0
2018-Jul-13 03:30N 37°52' W 122°27'510.9
2018-Jul-13 03:00N 37°48' W 122°24'511.0
2018-Jul-13 02:30N 37°52' W 122°27'510.3
2018-Jul-13 02:01N 37°48' W 122°23'4 8.3
2018-Jul-13 01:30N 37°51' W 122°27'1 2.1
2018-Jul-13 01:01N 37°51' W 122°26'3 6.7
2018-Jul-13 00:30N 37°48' W 122°23'510.9
2018-Jul-13 00:00N 37°52' W 122°27'510.1
2018-Jul-12 23:31N 37°48' W 122°23'0 0.9
2018-Jul-12 23:01N 37°48' W 122°23'1020.6
2018-Jul-12 22:30N 37°57' W 122°30'0 0.1
2018-Jul-12 22:00N 37°57' W 122°31'1 0.0
2018-Jul-12 03:51N 37°56' W 122°30'412.7
2018-Jul-12 03:30N 37°52' W 122°27'510.9
2018-Jul-12 03:00N 37°48' W 122°24'511.0
2018-Jul-12 02:30N 37°52' W 122°27'5 9.2
2018-Jul-12 02:00N 37°49' W 122°23'4 7.9
2018-Jul-12 01:30N 37°52' W 122°27'1 2.8
2018-Jul-12 01:01N 37°51' W 122°26'3 6.7
2018-Jul-12 00:31N 37°48' W 122°23'510.9
2018-Jul-12 00:00N 37°52' W 122°27'510.7
2018-Jul-11 23:30N 37°48' W 122°23'0 1.0
2018-Jul-11 23:00N 37°48' W 122°23'1 1.3
2018-Jul-11 22:31N 37°48' W 122°23'1020.1
2018-Jul-11 22:00N 37°57' W 122°31'0 0.0
2018-Jul-11 21:29N 37°57' W 122°31'0 0.0
2018-Jul-11 21:00N 37°57' W 122°31'  

Dump ship's entire track history